sensor_id;sensor_type;location;lat;lon;timestamp;P1;P2;P0
57049;PMS7003;42935;50.966;16.992;2023-01-15T00:01:40;2;2;2
57049;PMS7003;42935;50.966;16.992;2023-01-15T00:04:57;3;3;1
57049;PMS7003;42935;50.966;16.992;2023-01-15T00:08:13;3;2;2
57049;PMS7003;42935;50.966;16.992;2023-01-15T00:11:23;11;7;4
57049;PMS7003;42935;50.966;16.992;2023-01-15T00:14:32;4;3;2
57049;PMS7003;42935;50.966;16.992;2023-01-15T00:17:39;2;2;1
57049;PMS7003;42935;50.966;16.992;2023-01-15T00:20:46;6;5;3
57049;PMS7003;42935;50.966;16.992;2023-01-15T00:23:52;7;6;3
57049;PMS7003;42935;50.966;16.992;2023-01-15T00:27:09;5;3;2
57049;PMS7003;42935;50.966;16.992;2023-01-15T00:30:25;4;3;2
57049;PMS7003;42935;50.966;16.992;2023-01-15T00:33:34;8;6;4
57049;PMS7003;42935;50.966;16.992;2023-01-15T00:36:42;4;3;2
57049;PMS7003;42935;50.966;16.992;2023-01-15T00:39:52;6;4;2
57049;PMS7003;42935;50.966;16.992;2023-01-15T00:43:01;5;5;4
57049;PMS7003;42935;50.966;16.992;2023-01-15T00:46:06;14;9;7
57049;PMS7003;42935;50.966;16.992;2023-01-15T00:49:11;8;6;6
57049;PMS7003;42935;50.966;16.992;2023-01-15T00:52:17;7;6;5
57049;PMS7003;42935;50.966;16.992;2023-01-15T00:55:22;5;4;3
57049;PMS7003;42935;50.966;16.992;2023-01-15T00:58:29;5;5;3
57049;PMS7003;42935;50.966;16.992;2023-01-15T01:01:35;6;4;3
57049;PMS7003;42935;50.966;16.992;2023-01-15T01:04:46;11;4;3
57049;PMS7003;42935;50.966;16.992;2023-01-15T01:07:55;7;5;3
57049;PMS7003;42935;50.966;16.992;2023-01-15T01:11:06;6;5;4
57049;PMS7003;42935;50.966;16.992;2023-01-15T01:14:16;9;8;6
57049;PMS7003;42935;50.966;16.992;2023-01-15T01:17:21;7;6;4
57049;PMS7003;42935;50.966;16.992;2023-01-15T01:20:33;8;6;4
57049;PMS7003;42935;50.966;16.992;2023-01-15T01:23:46;6;5;3
57049;PMS7003;42935;50.966;16.992;2023-01-15T01:26:55;6;5;3
57049;PMS7003;42935;50.966;16.992;2023-01-15T01:30:02;6;6;5
57049;PMS7003;42935;50.966;16.992;2023-01-15T01:33:11;8;7;6
57049;PMS7003;42935;50.966;16.992;2023-01-15T01:39:37;8;6;4
57049;PMS7003;42935;50.966;16.992;2023-01-15T01:42:42;5;4;2
57049;PMS7003;42935;50.966;16.992;2023-01-15T01:45:52;8;5;4
57049;PMS7003;42935;50.966;16.992;2023-01-15T01:49:04;6;3;2
57049;PMS7003;42935;50.966;16.992;2023-01-15T01:52:14;8;4;3
57049;PMS7003;42935;50.966;16.992;2023-01-15T01:55:28;7;4;3
57049;PMS7003;42935;50.966;16.992;2023-01-15T01:58:38;4;3;2
57049;PMS7003;42935;50.966;16.992;2023-01-15T02:01:46;5;3;2
57049;PMS7003;42935;50.966;16.992;2023-01-15T02:04:56;5;3;3
57049;PMS7003;42935;50.966;16.992;2023-01-15T02:08:04;6;5;4
57049;PMS7003;42935;50.966;16.992;2023-01-15T02:11:16;9;5;5
57049;PMS7003;42935;50.966;16.992;2023-01-15T02:14:35;6;5;4
57049;PMS7003;42935;50.966;16.992;2023-01-15T02:24:30;8;5;4
57049;PMS7003;42935;50.966;16.992;2023-01-15T02:27:46;5;3;3
57049;PMS7003;42935;50.966;16.992;2023-01-15T02:31:02;7;5;3
57049;PMS7003;42935;50.966;16.992;2023-01-15T02:37:36;7;4;2
57049;PMS7003;42935;50.966;16.992;2023-01-15T02:40:51;3;3;2
57049;PMS7003;42935;50.966;16.992;2023-01-15T02:43:59;7;4;3
57049;PMS7003;42935;50.966;16.992;2023-01-15T02:47:09;4;3;3
57049;PMS7003;42935;50.966;16.992;2023-01-15T02:50:22;3;3;2
57049;PMS7003;42935;50.966;16.992;2023-01-15T02:53:31;2;2;1
57049;PMS7003;42935;50.966;16.992;2023-01-15T02:56:46;4;3;2
57049;PMS7003;42935;50.966;16.992;2023-01-15T02:59:57;6;2;2
57049;PMS7003;42935;50.966;16.992;2023-01-15T03:03:15;3;2;1
57049;PMS7003;42935;50.966;16.992;2023-01-15T03:09:51;2;1;1
57049;PMS7003;42935;50.966;16.992;2023-01-15T03:13:01;3;1;1
57049;PMS7003;42935;50.966;16.992;2023-01-15T03:19:41;2;1;1
57049;PMS7003;42935;50.966;16.992;2023-01-15T03:22:59;2;2;1
57049;PMS7003;42935;50.966;16.992;2023-01-15T03:26:15;2;1;1
57049;PMS7003;42935;50.966;16.992;2023-01-15T03:29:25;3;1;1
57049;PMS7003;42935;50.966;16.992;2023-01-15T03:32:37;2;1;1
57049;PMS7003;42935;50.966;16.992;2023-01-15T03:39:05;3;2;1
57049;PMS7003;42935;50.966;16.992;2023-01-15T03:45:38;3;1;1
57049;PMS7003;42935;50.966;16.992;2023-01-15T03:49:00;2;2;1
57049;PMS7003;42935;50.966;16.992;2023-01-15T03:52:23;1;1;1
57049;PMS7003;42935;50.966;16.992;2023-01-15T03:55:42;1;1;1
57049;PMS7003;42935;50.966;16.992;2023-01-15T03:59:02;3;1;1
57049;PMS7003;42935;50.966;16.992;2023-01-15T04:02:15;1;1;1
57049;PMS7003;42935;50.966;16.992;2023-01-15T04:05:26;2;1;1
57049;PMS7003;42935;50.966;16.992;2023-01-15T04:08:34;2;1;1
57049;PMS7003;42935;50.966;16.992;2023-01-15T04:11:46;0;0;0
57049;PMS7003;42935;50.966;16.992;2023-01-15T04:14:53;1;1;0
57049;PMS7003;42935;50.966;16.992;2023-01-15T04:18:03;1;0;0
57049;PMS7003;42935;50.966;16.992;2023-01-15T04:21:12;2;1;1
57049;PMS7003;42935;50.966;16.992;2023-01-15T04:24:21;2;2;1
57049;PMS7003;42935;50.966;16.992;2023-01-15T04:27:31;5;1;1
57049;PMS7003;42935;50.966;16.992;2023-01-15T04:30:36;1;1;0
57049;PMS7003;42935;50.966;16.992;2023-01-15T04:33:45;2;2;1
57049;PMS7003;42935;50.966;16.992;2023-01-15T04:36:57;5;3;2
57049;PMS7003;42935;50.966;16.992;2023-01-15T04:40:04;2;1;1
57049;PMS7003;42935;50.966;16.992;2023-01-15T04:43:14;4;2;1
57049;PMS7003;42935;50.966;16.992;2023-01-15T04:46:41;1;1;1
57049;PMS7003;42935;50.966;16.992;2023-01-15T04:49:48;1;1;1
57049;PMS7003;42935;50.966;16.992;2023-01-15T04:52:57;2;2;1
57049;PMS7003;42935;50.966;16.992;2023-01-15T04:56:08;2;2;1
57049;PMS7003;42935;50.966;16.992;2023-01-15T04:59:18;3;2;1
57049;PMS7003;42935;50.966;16.992;2023-01-15T05:02:25;3;3;2
57049;PMS7003;42935;50.966;16.992;2023-01-15T05:05:35;2;2;2
57049;PMS7003;42935;50.966;16.992;2023-01-15T05:08:41;2;2;2
57049;PMS7003;42935;50.966;16.992;2023-01-15T05:11:47;2;2;2
57049;PMS7003;42935;50.966;16.992;2023-01-15T05:14:57;3;3;2
57049;PMS7003;42935;50.966;16.992;2023-01-15T05:18:03;3;3;1
57049;PMS7003;42935;50.966;16.992;2023-01-15T05:21:18;5;3;3
57049;PMS7003;42935;50.966;16.992;2023-01-15T05:24:30;5;4;3
57049;PMS7003;42935;50.966;16.992;2023-01-15T05:27:43;6;3;3
57049;PMS7003;42935;50.966;16.992;2023-01-15T05:30:52;5;3;3
57049;PMS7003;42935;50.966;16.992;2023-01-15T05:34:04;4;3;2
57049;PMS7003;42935;50.966;16.992;2023-01-15T05:37:14;4;3;2
57049;PMS7003;42935;50.966;16.992;2023-01-15T05:40:23;3;3;2
57049;PMS7003;42935;50.966;16.992;2023-01-15T05:43:30;2;2;1
57049;PMS7003;42935;50.966;16.992;2023-01-15T05:46:36;4;3;2
57049;PMS7003;42935;50.966;16.992;2023-01-15T05:49:43;2;2;2
57049;PMS7003;42935;50.966;16.992;2023-01-15T05:52:53;6;2;1
57049;PMS7003;42935;50.966;16.992;2023-01-15T05:56:08;3;2;2
57049;PMS7003;42935;50.966;16.992;2023-01-15T05:59:15;3;2;2
57049;PMS7003;42935;50.966;16.992;2023-01-15T06:02:27;6;3;2
57049;PMS7003;42935;50.966;16.992;2023-01-15T06:05:36;3;2;2
57049;PMS7003;42935;50.966;16.992;2023-01-15T06:08:46;2;2;2
57049;PMS7003;42935;50.966;16.992;2023-01-15T06:11:51;2;2;1
57049;PMS7003;42935;50.966;16.992;2023-01-15T06:15:04;2;2;1
57049;PMS7003;42935;50.966;16.992;2023-01-15T06:18:16;3;2;1
57049;PMS7003;42935;50.966;16.992;2023-01-15T06:21:27;2;2;2
57049;PMS7003;42935;50.966;16.992;2023-01-15T06:24:35;2;2;1
57049;PMS7003;42935;50.966;16.992;2023-01-15T06:27:40;2;1;1
57049;PMS7003;42935;50.966;16.992;2023-01-15T06:30:51;5;3;2
57049;PMS7003;42935;50.966;16.992;2023-01-15T06:34:01;4;1;1
57049;PMS7003;42935;50.966;16.992;2023-01-15T06:37:11;2;1;1
57049;PMS7003;42935;50.966;16.992;2023-01-15T06:40:18;1;1;1
57049;PMS7003;42935;50.966;16.992;2023-01-15T06:43:27;2;2;1
57049;PMS7003;42935;50.966;16.992;2023-01-15T06:46:49;6;2;1
57049;PMS7003;42935;50.966;16.992;2023-01-15T06:50:10;2;1;1
57049;PMS7003;42935;50.966;16.992;2023-01-15T06:53:19;3;2;2
57049;PMS7003;42935;50.966;16.992;2023-01-15T06:56:29;2;2;2
57049;PMS7003;42935;50.966;16.992;2023-01-15T06:59:38;3;2;1
57049;PMS7003;42935;50.966;16.992;2023-01-15T07:02:45;3;2;2
57049;PMS7003;42935;50.966;16.992;2023-01-15T07:05:54;2;2;2
57049;PMS7003;42935;50.966;16.992;2023-01-15T07:09:00;4;2;2
57049;PMS7003;42935;50.966;16.992;2023-01-15T07:12:07;2;2;2
57049;PMS7003;42935;50.966;16.992;2023-01-15T07:15:14;4;3;2
57049;PMS7003;42935;50.966;16.992;2023-01-15T07:18:19;5;2;2
57049;PMS7003;42935;50.966;16.992;2023-01-15T07:21:24;4;3;2
57049;PMS7003;42935;50.966;16.992;2023-01-15T07:24:31;6;3;2
57049;PMS7003;42935;50.966;16.992;2023-01-15T07:27:38;5;3;3
57049;PMS7003;42935;50.966;16.992;2023-01-15T07:30:45;6;6;4
57049;PMS7003;42935;50.966;16.992;2023-01-15T07:33:56;5;5;3
57049;PMS7003;42935;50.966;16.992;2023-01-15T07:37:06;3;2;2
57049;PMS7003;42935;50.966;16.992;2023-01-15T07:40:13;3;2;2
57049;PMS7003;42935;50.966;16.992;2023-01-15T07:43:23;5;4;3
57049;PMS7003;42935;50.966;16.992;2023-01-15T07:46:43;7;6;5
57049;PMS7003;42935;50.966;16.992;2023-01-15T07:50:05;6;4;3
57049;PMS7003;42935;50.966;16.992;2023-01-15T07:53:12;7;6;5
57049;PMS7003;42935;50.966;16.992;2023-01-15T07:56:22;7;4;3
57049;PMS7003;42935;50.966;16.992;2023-01-15T07:59:33;5;5;4
57049;PMS7003;42935;50.966;16.992;2023-01-15T08:02:40;7;6;5
57049;PMS7003;42935;50.966;16.992;2023-01-15T08:05:56;12;9;7
57049;PMS7003;42935;50.966;16.992;2023-01-15T08:09:06;8;6;5
57049;PMS7003;42935;50.966;16.992;2023-01-15T08:12:16;6;5;4
57049;PMS7003;42935;50.966;16.992;2023-01-15T08:15:39;12;8;7
57049;PMS7003;42935;50.966;16.992;2023-01-15T08:18:51;6;4;3
57049;PMS7003;42935;50.966;16.992;2023-01-15T08:22:00;12;8;6
57049;PMS7003;42935;50.966;16.992;2023-01-15T08:25:08;10;6;5
57049;PMS7003;42935;50.966;16.992;2023-01-15T08:28:20;8;8;5
57049;PMS7003;42935;50.966;16.992;2023-01-15T08:31:27;7;7;5
57049;PMS7003;42935;50.966;16.992;2023-01-15T08:34:37;9;5;3
57049;PMS7003;42935;50.966;16.992;2023-01-15T08:37:46;9;7;5
57049;PMS7003;42935;50.966;16.992;2023-01-15T08:40:54;13;10;7
57049;PMS7003;42935;50.966;16.992;2023-01-15T08:44:05;13;10;7
57049;PMS7003;42935;50.966;16.992;2023-01-15T08:47:16;15;10;8
57049;PMS7003;42935;50.966;16.992;2023-01-15T08:50:22;10;7;6
57049;PMS7003;42935;50.966;16.992;2023-01-15T08:53:32;9;8;5
57049;PMS7003;42935;50.966;16.992;2023-01-15T08:56:42;8;7;6
57049;PMS7003;42935;50.966;16.992;2023-01-15T08:59:50;8;6;5
57049;PMS7003;42935;50.966;16.992;2023-01-15T09:03:29;8;7;5
57049;PMS7003;42935;50.966;16.992;2023-01-15T09:06:36;7;6;4
57049;PMS7003;42935;50.966;16.992;2023-01-15T09:09:45;8;7;5
57049;PMS7003;42935;50.966;16.992;2023-01-15T09:12:57;11;7;6
57049;PMS7003;42935;50.966;16.992;2023-01-15T09:16:04;9;7;6
57049;PMS7003;42935;50.966;16.992;2023-01-15T09:19:13;8;6;5
57049;PMS7003;42935;50.966;16.992;2023-01-15T09:22:20;5;5;4
57049;PMS7003;42935;50.966;16.992;2023-01-15T09:25:29;8;7;4
57049;PMS7003;42935;50.966;16.992;2023-01-15T09:28:36;6;5;3
57049;PMS7003;42935;50.966;16.992;2023-01-15T09:31:43;6;5;3
57049;PMS7003;42935;50.966;16.992;2023-01-15T09:34:53;6;5;4
57049;PMS7003;42935;50.966;16.992;2023-01-15T09:38:00;6;5;4
57049;PMS7003;42935;50.966;16.992;2023-01-15T09:41:47;10;8;6
57049;PMS7003;42935;50.966;16.992;2023-01-15T09:48:32;8;6;4
57049;PMS7003;42935;50.966;16.992;2023-01-15T09:51:51;7;6;4
57049;PMS7003;42935;50.966;16.992;2023-01-15T10:01:42;4;4;3
57049;PMS7003;42935;50.966;16.992;2023-01-15T10:05:06;5;4;3
57049;PMS7003;42935;50.966;16.992;2023-01-15T10:18:30;8;7;5
57049;PMS7003;42935;50.966;16.992;2023-01-15T10:21:45;8;6;5
57049;PMS7003;42935;50.966;16.992;2023-01-15T10:24:58;8;6;5
57049;PMS7003;42935;50.966;16.992;2023-01-15T10:28:37;6;6;4
57049;PMS7003;42935;50.966;16.992;2023-01-15T10:31:38;6;4;3
57049;PMS7003;42935;50.966;16.992;2023-01-15T10:48:20;7;6;4
57049;PMS7003;42935;50.966;16.992;2023-01-15T10:51:36;3;3;3
57049;PMS7003;42935;50.966;16.992;2023-01-15T10:54:48;4;4;3
57049;PMS7003;42935;50.966;16.992;2023-01-15T11:01:24;5;4;4
57049;PMS7003;42935;50.966;16.992;2023-01-15T11:04:37;8;6;5
57049;PMS7003;42935;50.966;16.992;2023-01-15T11:07:45;7;6;4
57049;PMS7003;42935;50.966;16.992;2023-01-15T11:10:57;11;9;6
57049;PMS7003;42935;50.966;16.992;2023-01-15T11:14:09;11;7;6
57049;PMS7003;42935;50.966;16.992;2023-01-15T11:21:01;8;5;4
57049;PMS7003;42935;50.966;16.992;2023-01-15T11:24:15;8;6;5
57049;PMS7003;42935;50.966;16.992;2023-01-15T11:27:27;8;7;6
57049;PMS7003;42935;50.966;16.992;2023-01-15T11:30:36;7;5;4
57049;PMS7003;42935;50.966;16.992;2023-01-15T11:33:43;7;6;4
57049;PMS7003;42935;50.966;16.992;2023-01-15T11:43:28;9;5;4
57049;PMS7003;42935;50.966;16.992;2023-01-15T11:46:53;8;6;4
57049;PMS7003;42935;50.966;16.992;2023-01-15T11:53:39;4;4;3
57049;PMS7003;42935;50.966;16.992;2023-01-15T11:56:51;9;7;6
57049;PMS7003;42935;50.966;16.992;2023-01-15T12:00:02;8;7;5
57049;PMS7003;42935;50.966;16.992;2023-01-15T12:03:15;10;5;5
57049;PMS7003;42935;50.966;16.992;2023-01-15T12:06:27;8;7;6
57049;PMS7003;42935;50.966;16.992;2023-01-15T12:16:27;9;7;5
57049;PMS7003;42935;50.966;16.992;2023-01-15T12:26:54;10;7;5
57049;PMS7003;42935;50.966;16.992;2023-01-15T12:36:49;10;8;6
57049;PMS7003;42935;50.966;16.992;2023-01-15T12:43:27;11;8;7
57049;PMS7003;42935;50.966;16.992;2023-01-15T12:46:43;12;10;8
57049;PMS7003;42935;50.966;16.992;2023-01-15T12:56:32;6;5;4
57049;PMS7003;42935;50.966;16.992;2023-01-15T12:59:52;3;2;1
57049;PMS7003;42935;50.966;16.992;2023-01-15T13:03:18;2;1;1
57049;PMS7003;42935;50.966;16.992;2023-01-15T13:06:34;2;1;1
57049;PMS7003;42935;50.966;16.992;2023-01-15T13:09:51;3;2;1
57049;PMS7003;42935;50.966;16.992;2023-01-15T13:16:39;1;1;1
57049;PMS7003;42935;50.966;16.992;2023-01-15T13:39:48;5;3;2
57049;PMS7003;42935;50.966;16.992;2023-01-15T13:43:00;14;10;8
57049;PMS7003;42935;50.966;16.992;2023-01-15T13:46:18;10;7;5
57049;PMS7003;42935;50.966;16.992;2023-01-15T13:49:29;5;4;2
57049;PMS7003;42935;50.966;16.992;2023-01-15T13:52:42;5;1;1
57049;PMS7003;42935;50.966;16.992;2023-01-15T14:02:36;1;1;1
57049;PMS7003;42935;50.966;16.992;2023-01-15T14:05:57;0;0;0
57049;PMS7003;42935;50.966;16.992;2023-01-15T14:08:59;1;0;0
57049;PMS7003;42935;50.966;16.992;2023-01-15T14:35:42;2;1;1
57049;PMS7003;42935;50.966;16.992;2023-01-15T14:38:54;4;1;1
57049;PMS7003;42935;50.966;16.992;2023-01-15T14:42:08;3;2;1
57049;PMS7003;42935;50.966;16.992;2023-01-15T14:45:37;3;3;1
57049;PMS7003;42935;50.966;16.992;2023-01-15T14:48:47;3;3;2
57049;PMS7003;42935;50.966;16.992;2023-01-15T14:51:53;9;4;2
57049;PMS7003;42935;50.966;16.992;2023-01-15T14:55:04;3;3;2
57049;PMS7003;42935;50.966;16.992;2023-01-15T15:01:43;4;3;2
57049;PMS7003;42935;50.966;16.992;2023-01-15T15:05:02;6;4;3
57049;PMS7003;42935;50.966;16.992;2023-01-15T15:08:17;5;3;2
57049;PMS7003;42935;50.966;16.992;2023-01-15T15:21:32;7;5;4
57049;PMS7003;42935;50.966;16.992;2023-01-15T15:24:49;11;9;7
57049;PMS7003;42935;50.966;16.992;2023-01-15T15:28:05;8;7;6
57049;PMS7003;42935;50.966;16.992;2023-01-15T15:31:17;7;5;3
57049;PMS7003;42935;50.966;16.992;2023-01-15T15:34:28;6;5;3
57049;PMS7003;42935;50.966;16.992;2023-01-15T15:37:46;8;7;5
57049;PMS7003;42935;50.966;16.992;2023-01-15T15:41:01;5;3;2
57049;PMS7003;42935;50.966;16.992;2023-01-15T15:44:16;5;2;2
57049;PMS7003;42935;50.966;16.992;2023-01-15T15:47:43;4;4;2
57049;PMS7003;42935;50.966;16.992;2023-01-15T15:54:27;6;5;3
57049;PMS7003;42935;50.966;16.992;2023-01-15T15:57:45;11;8;4
57049;PMS7003;42935;50.966;16.992;2023-01-15T16:00:55;8;6;4
57049;PMS7003;42935;50.966;16.992;2023-01-15T16:04:05;7;4;3
57049;PMS7003;42935;50.966;16.992;2023-01-15T16:07:11;6;5;3
57049;PMS7003;42935;50.966;16.992;2023-01-15T16:10:31;7;6;3
57049;PMS7003;42935;50.966;16.992;2023-01-15T16:13:41;4;3;2
57049;PMS7003;42935;50.966;16.992;2023-01-15T16:16:52;4;3;2
57049;PMS7003;42935;50.966;16.992;2023-01-15T16:20:03;6;3;3
57049;PMS7003;42935;50.966;16.992;2023-01-15T16:23:18;5;4;3
57049;PMS7003;42935;50.966;16.992;2023-01-15T16:29:50;10;6;3
57049;PMS7003;42935;50.966;16.992;2023-01-15T16:33:02;6;4;3
57049;PMS7003;42935;50.966;16.992;2023-01-15T16:36:12;7;5;3
57049;PMS7003;42935;50.966;16.992;2023-01-15T16:39:25;9;8;5
57049;PMS7003;42935;50.966;16.992;2023-01-15T16:42:48;14;11;8
57049;PMS7003;42935;50.966;16.992;2023-01-15T16:49:25;16;11;6
57049;PMS7003;42935;50.966;16.992;2023-01-15T16:55:57;8;6;5
57049;PMS7003;42935;50.966;16.992;2023-01-15T16:59:18;8;8;6
57049;PMS7003;42935;50.966;16.992;2023-01-15T17:02:40;9;7;5
57049;PMS7003;42935;50.966;16.992;2023-01-15T17:05:57;14;10;6
57049;PMS7003;42935;50.966;16.992;2023-01-15T17:09:12;9;7;5
57049;PMS7003;42935;50.966;16.992;2023-01-15T17:12:27;7;6;4
57049;PMS7003;42935;50.966;16.992;2023-01-15T17:15:58;7;5;4
57049;PMS7003;42935;50.966;16.992;2023-01-15T17:19:10;9;5;4
57049;PMS7003;42935;50.966;16.992;2023-01-15T17:25:36;7;6;4
57049;PMS7003;42935;50.966;16.992;2023-01-15T17:28:43;12;6;5
57049;PMS7003;42935;50.966;16.992;2023-01-15T17:31:49;11;7;6
57049;PMS7003;42935;50.966;16.992;2023-01-15T17:34:54;11;7;6
57049;PMS7003;42935;50.966;16.992;2023-01-15T17:38:01;11;8;6
57049;PMS7003;42935;50.966;16.992;2023-01-15T17:41:14;11;9;6
57049;PMS7003;42935;50.966;16.992;2023-01-15T17:44:25;15;12;8
57049;PMS7003;42935;50.966;16.992;2023-01-15T17:47:35;18;13;8
57049;PMS7003;42935;50.966;16.992;2023-01-15T17:50:42;18;11;8
57049;PMS7003;42935;50.966;16.992;2023-01-15T17:53:51;20;12;8
57049;PMS7003;42935;50.966;16.992;2023-01-15T17:57:01;13;9;7
57049;PMS7003;42935;50.966;16.992;2023-01-15T18:00:21;10;9;6
57049;PMS7003;42935;50.966;16.992;2023-01-15T18:03:43;13;8;7
57049;PMS7003;42935;50.966;16.992;2023-01-15T18:07:13;11;9;7
57049;PMS7003;42935;50.966;16.992;2023-01-15T18:10:22;13;8;6
57049;PMS7003;42935;50.966;16.992;2023-01-15T18:13:33;10;7;6
57049;PMS7003;42935;50.966;16.992;2023-01-15T18:16:43;11;8;5
57049;PMS7003;42935;50.966;16.992;2023-01-15T18:19:54;8;6;4
57049;PMS7003;42935;50.966;16.992;2023-01-15T18:23:03;7;7;4
57049;PMS7003;42935;50.966;16.992;2023-01-15T18:26:10;8;5;3
57049;PMS7003;42935;50.966;16.992;2023-01-15T18:29:20;4;3;2
57049;PMS7003;42935;50.966;16.992;2023-01-15T18:32:36;5;3;1
57049;PMS7003;42935;50.966;16.992;2023-01-15T18:35:46;4;2;2
57049;PMS7003;42935;50.966;16.992;2023-01-15T18:38:56;6;2;2
57049;PMS7003;42935;50.966;16.992;2023-01-15T18:42:13;2;1;1
57049;PMS7003;42935;50.966;16.992;2023-01-15T18:45:33;4;3;2
57049;PMS7003;42935;50.966;16.992;2023-01-15T18:48:51;5;2;1
57049;PMS7003;42935;50.966;16.992;2023-01-15T18:51:58;2;2;1
57049;PMS7003;42935;50.966;16.992;2023-01-15T18:55:19;2;1;1
57049;PMS7003;42935;50.966;16.992;2023-01-15T18:58:33;5;3;2
57049;PMS7003;42935;50.966;16.992;2023-01-15T19:01:40;6;4;3
57049;PMS7003;42935;50.966;16.992;2023-01-15T19:04:46;6;4;3
57049;PMS7003;42935;50.966;16.992;2023-01-15T19:07:55;5;4;2
57049;PMS7003;42935;50.966;16.992;2023-01-15T19:14:19;8;6;4
57049;PMS7003;42935;50.966;16.992;2023-01-15T19:17:38;10;5;3
57049;PMS7003;42935;50.966;16.992;2023-01-15T19:20:59;9;5;4
57049;PMS7003;42935;50.966;16.992;2023-01-15T19:24:14;12;7;4
57049;PMS7003;42935;50.966;16.992;2023-01-15T19:27:21;10;7;5
57049;PMS7003;42935;50.966;16.992;2023-01-15T19:30:29;6;5;4
57049;PMS7003;42935;50.966;16.992;2023-01-15T19:33:40;6;5;4
57049;PMS7003;42935;50.966;16.992;2023-01-15T19:36:50;7;6;5
57049;PMS7003;42935;50.966;16.992;2023-01-15T19:39:58;12;7;4
57049;PMS7003;42935;50.966;16.992;2023-01-15T19:43:14;11;6;4
57049;PMS7003;42935;50.966;16.992;2023-01-15T19:46:34;10;8;6
57049;PMS7003;42935;50.966;16.992;2023-01-15T19:49:51;10;8;6
57049;PMS7003;42935;50.966;16.992;2023-01-15T19:53:07;8;6;5
57049;PMS7003;42935;50.966;16.992;2023-01-15T19:56:23;9;7;5
57049;PMS7003;42935;50.966;16.992;2023-01-15T19:59:35;12;8;5
57049;PMS7003;42935;50.966;16.992;2023-01-15T20:02:41;8;7;5
57049;PMS7003;42935;50.966;16.992;2023-01-15T20:05:50;6;6;5
57049;PMS7003;42935;50.966;16.992;2023-01-15T20:09:01;7;5;4
57049;PMS7003;42935;50.966;16.992;2023-01-15T20:12:10;8;7;5
57049;PMS7003;42935;50.966;16.992;2023-01-15T20:15:32;9;6;5
57049;PMS7003;42935;50.966;16.992;2023-01-15T20:18:42;5;5;4
57049;PMS7003;42935;50.966;16.992;2023-01-15T20:21:50;8;6;4
57049;PMS7003;42935;50.966;16.992;2023-01-15T20:25:00;8;7;5
57049;PMS7003;42935;50.966;16.992;2023-01-15T20:28:07;11;8;6
57049;PMS7003;42935;50.966;16.992;2023-01-15T20:31:17;11;8;6
57049;PMS7003;42935;50.966;16.992;2023-01-15T20:34:27;8;7;6
57049;PMS7003;42935;50.966;16.992;2023-01-15T20:37:43;8;7;5
57049;PMS7003;42935;50.966;16.992;2023-01-15T20:40:51;11;10;7
57049;PMS7003;42935;50.966;16.992;2023-01-15T20:44:04;13;9;7
57049;PMS7003;42935;50.966;16.992;2023-01-15T20:47:24;11;9;6
57049;PMS7003;42935;50.966;16.992;2023-01-15T20:50:44;11;8;6
57049;PMS7003;42935;50.966;16.992;2023-01-15T20:54:06;9;7;5
57049;PMS7003;42935;50.966;16.992;2023-01-15T20:57:16;9;6;4
57049;PMS7003;42935;50.966;16.992;2023-01-15T21:00:21;9;8;5
57049;PMS7003;42935;50.966;16.992;2023-01-15T21:03:30;7;7;6
57049;PMS7003;42935;50.966;16.992;2023-01-15T21:06:37;10;6;5
57049;PMS7003;42935;50.966;16.992;2023-01-15T21:09:47;8;6;5
57049;PMS7003;42935;50.966;16.992;2023-01-15T21:12:54;9;6;4
57049;PMS7003;42935;50.966;16.992;2023-01-15T21:16:05;7;6;4
57049;PMS7003;42935;50.966;16.992;2023-01-15T21:19:16;6;5;3
57049;PMS7003;42935;50.966;16.992;2023-01-15T21:22:23;6;6;5
57049;PMS7003;42935;50.966;16.992;2023-01-15T21:25:32;6;4;3
57049;PMS7003;42935;50.966;16.992;2023-01-15T21:28:39;7;5;4
57049;PMS7003;42935;50.966;16.992;2023-01-15T21:31:48;6;4;2
57049;PMS7003;42935;50.966;16.992;2023-01-15T21:35:00;6;4;3
57049;PMS7003;42935;50.966;16.992;2023-01-15T21:38:10;3;2;1
57049;PMS7003;42935;50.966;16.992;2023-01-15T21:41:21;6;3;2
57049;PMS7003;42935;50.966;16.992;2023-01-15T21:44:38;3;2;2
57049;PMS7003;42935;50.966;16.992;2023-01-15T21:47:48;2;2;1
57049;PMS7003;42935;50.966;16.992;2023-01-15T21:50:53;3;2;1
57049;PMS7003;42935;50.966;16.992;2023-01-15T21:54:00;1;1;1
57049;PMS7003;42935;50.966;16.992;2023-01-15T21:57:05;1;1;1
57049;PMS7003;42935;50.966;16.992;2023-01-15T22:00:15;1;1;0
57049;PMS7003;42935;50.966;16.992;2023-01-15T22:03:27;1;1;1
57049;PMS7003;42935;50.966;16.992;2023-01-15T22:06:32;0;0;0
57049;PMS7003;42935;50.966;16.992;2023-01-15T22:09:41;2;1;1
57049;PMS7003;42935;50.966;16.992;2023-01-15T22:12:46;0;0;0
57049;PMS7003;42935;50.966;16.992;2023-01-15T22:15:53;0;0;0
57049;PMS7003;42935;50.966;16.992;2023-01-15T22:19:03;0;0;0
57049;PMS7003;42935;50.966;16.992;2023-01-15T22:22:12;2;0;0
57049;PMS7003;42935;50.966;16.992;2023-01-15T22:25:19;1;1;1
57049;PMS7003;42935;50.966;16.992;2023-01-15T22:28:32;1;0;0
57049;PMS7003;42935;50.966;16.992;2023-01-15T22:31:42;1;1;1
57049;PMS7003;42935;50.966;16.992;2023-01-15T22:34:51;0;0;0
57049;PMS7003;42935;50.966;16.992;2023-01-15T22:38:01;0;0;0
57049;PMS7003;42935;50.966;16.992;2023-01-15T22:41:11;1;0;0
57049;PMS7003;42935;50.966;16.992;2023-01-15T22:44:16;0;0;0
57049;PMS7003;42935;50.966;16.992;2023-01-15T22:47:25;0;0;0
57049;PMS7003;42935;50.966;16.992;2023-01-15T22:50:33;0;0;0
57049;PMS7003;42935;50.966;16.992;2023-01-15T22:53:42;0;0;0
57049;PMS7003;42935;50.966;16.992;2023-01-15T22:56:48;1;0;0
57049;PMS7003;42935;50.966;16.992;2023-01-15T22:59:53;0;0;0
57049;PMS7003;42935;50.966;16.992;2023-01-15T23:03:02;0;0;0
57049;PMS7003;42935;50.966;16.992;2023-01-15T23:06:08;4;3;2
57049;PMS7003;42935;50.966;16.992;2023-01-15T23:09:17;5;3;3
57049;PMS7003;42935;50.966;16.992;2023-01-15T23:12:27;3;1;1
57049;PMS7003;42935;50.966;16.992;2023-01-15T23:15:38;1;1;0
57049;PMS7003;42935;50.966;16.992;2023-01-15T23:18:47;2;1;1
57049;PMS7003;42935;50.966;16.992;2023-01-15T23:21:55;2;2;2
57049;PMS7003;42935;50.966;16.992;2023-01-15T23:25:07;6;4;2
57049;PMS7003;42935;50.966;16.992;2023-01-15T23:28:14;8;5;4
57049;PMS7003;42935;50.966;16.992;2023-01-15T23:31:24;5;2;2
57049;PMS7003;42935;50.966;16.992;2023-01-15T23:34:34;5;2;2
57049;PMS7003;42935;50.966;16.992;2023-01-15T23:37:43;6;4;2
57049;PMS7003;42935;50.966;16.992;2023-01-15T23:40:53;11;5;4
57049;PMS7003;42935;50.966;16.992;2023-01-15T23:44:00;6;5;3
57049;PMS7003;42935;50.966;16.992;2023-01-15T23:47:20;8;5;5
57049;PMS7003;42935;50.966;16.992;2023-01-15T23:50:27;6;3;2
57049;PMS7003;42935;50.966;16.992;2023-01-15T23:53:36;2;2;2
